sensor_id;sensor_type;location;lat;lon;timestamp;temperature;humidity
3416;DHT22;1721;51.238;9.562;2022-11-18T00:01:51;11.60;96.20
3416;DHT22;1721;51.238;9.562;2022-11-18T00:04:16;11.60;96.30
3416;DHT22;1721;51.238;9.562;2022-11-18T00:06:42;11.60;96.30
3416;DHT22;1721;51.238;9.562;2022-11-18T00:09:07;11.60;96.30
3416;DHT22;1721;51.238;9.562;2022-11-18T00:11:33;11.60;96.40
3416;DHT22;1721;51.238;9.562;2022-11-18T00:14:20;11.60;96.60
3416;DHT22;1721;51.238;9.562;2022-11-18T00:16:58;11.40;96.50
3416;DHT22;1721;51.238;9.562;2022-11-18T00:19:28;11.20;97.80
3416;DHT22;1721;51.238;9.562;2022-11-18T00:21:54;11.10;97.60
3416;DHT22;1721;51.238;9.562;2022-11-18T00:24:20;11.20;97.40
3416;DHT22;1721;51.238;9.562;2022-11-18T00:26:46;11.40;97.50
3416;DHT22;1721;51.238;9.562;2022-11-18T00:29:12;11.50;97.30
3416;DHT22;1721;51.238;9.562;2022-11-18T00:31:38;11.70;97.10
3416;DHT22;1721;51.238;9.562;2022-11-18T00:34:04;11.20;97.40
3416;DHT22;1721;51.238;9.562;2022-11-18T00:36:30;11.20;97.90
3416;DHT22;1721;51.238;9.562;2022-11-18T00:38:56;11.30;97.70
3416;DHT22;1721;51.238;9.562;2022-11-18T00:41:21;11.50;97.40
3416;DHT22;1721;51.238;9.562;2022-11-18T00:43:47;11.60;97.10
3416;DHT22;1721;51.238;9.562;2022-11-18T00:46:13;11.60;96.90
3416;DHT22;1721;51.238;9.562;2022-11-18T00:48:39;11.70;96.90
3416;DHT22;1721;51.238;9.562;2022-11-18T00:51:16;11.70;96.80
3416;DHT22;1721;51.238;9.562;2022-11-18T00:53:43;11.70;96.70
3416;DHT22;1721;51.238;9.562;2022-11-18T00:56:09;11.70;96.50
3416;DHT22;1721;51.238;9.562;2022-11-18T00:58:35;11.70;96.60
3416;DHT22;1721;51.238;9.562;2022-11-18T01:01:02;11.70;96.50
3416;DHT22;1721;51.238;9.562;2022-11-18T01:03:28;11.70;96.50
3416;DHT22;1721;51.238;9.562;2022-11-18T01:05:54;11.70;96.50
3416;DHT22;1721;51.238;9.562;2022-11-18T01:08:20;11.70;96.50
3416;DHT22;1721;51.238;9.562;2022-11-18T01:10:47;11.80;96.40
3416;DHT22;1721;51.238;9.562;2022-11-18T01:13:16;11.70;96.40
3416;DHT22;1721;51.238;9.562;2022-11-18T01:15:56;11.70;96.40
3416;DHT22;1721;51.238;9.562;2022-11-18T01:18:27;11.70;96.40
3416;DHT22;1721;51.238;9.562;2022-11-18T01:20:59;11.80;96.40
3416;DHT22;1721;51.238;9.562;2022-11-18T01:23:25;11.90;96.40
3416;DHT22;1721;51.238;9.562;2022-11-18T01:25:50;11.80;96.20
3416;DHT22;1721;51.238;9.562;2022-11-18T01:28:17;11.80;96.50
3416;DHT22;1721;51.238;9.562;2022-11-18T01:30:42;11.70;96.60
3416;DHT22;1721;51.238;9.562;2022-11-18T01:33:08;11.80;96.60
3416;DHT22;1721;51.238;9.562;2022-11-18T01:35:39;11.80;96.60
3416;DHT22;1721;51.238;9.562;2022-11-18T01:38:06;11.90;96.50
3416;DHT22;1721;51.238;9.562;2022-11-18T01:40:33;11.90;96.40
3416;DHT22;1721;51.238;9.562;2022-11-18T01:42:58;11.90;96.40
3416;DHT22;1721;51.238;9.562;2022-11-18T01:45:36;11.90;96.20
3416;DHT22;1721;51.238;9.562;2022-11-18T01:48:07;11.90;96.20
3416;DHT22;1721;51.238;9.562;2022-11-18T01:50:37;11.90;96.20
3416;DHT22;1721;51.238;9.562;2022-11-18T01:53:08;11.90;96.20
3416;DHT22;1721;51.238;9.562;2022-11-18T01:55:39;11.80;96.10
3416;DHT22;1721;51.238;9.562;2022-11-18T01:58:17;11.80;96.00
3416;DHT22;1721;51.238;9.562;2022-11-18T02:00:44;11.70;96.00
3416;DHT22;1721;51.238;9.562;2022-11-18T02:03:11;11.70;96.00
3416;DHT22;1721;51.238;9.562;2022-11-18T02:05:37;11.70;96.00
3416;DHT22;1721;51.238;9.562;2022-11-18T02:08:05;11.60;95.80
3416;DHT22;1721;51.238;9.562;2022-11-18T02:10:31;11.50;96.00
3416;DHT22;1721;51.238;9.562;2022-11-18T02:12:57;11.50;96.20
3416;DHT22;1721;51.238;9.562;2022-11-18T02:18:38;11.30;96.50
3416;DHT22;1721;51.238;9.562;2022-11-18T02:21:20;11.40;96.30
3416;DHT22;1721;51.238;9.562;2022-11-18T02:29:23;11.00;97.00
3416;DHT22;1721;51.238;9.562;2022-11-18T02:32:01;11.10;96.80
3416;DHT22;1721;51.238;9.562;2022-11-18T02:39:57;11.20;96.60
3416;DHT22;1721;51.238;9.562;2022-11-18T02:42:25;11.30;96.60
3416;DHT22;1721;51.238;9.562;2022-11-18T02:44:56;11.30;96.60
3416;DHT22;1721;51.238;9.562;2022-11-18T02:47:25;11.30;96.70
3416;DHT22;1721;51.238;9.562;2022-11-18T02:49:56;11.40;96.60
3416;DHT22;1721;51.238;9.562;2022-11-18T02:52:23;11.40;96.80
3416;DHT22;1721;51.238;9.562;2022-11-18T02:54:50;11.50;96.70
3416;DHT22;1721;51.238;9.562;2022-11-18T02:57:18;11.60;96.70
3416;DHT22;1721;51.238;9.562;2022-11-18T02:59:44;11.60;96.40
3416;DHT22;1721;51.238;9.562;2022-11-18T03:02:18;11.60;96.70
3416;DHT22;1721;51.238;9.562;2022-11-18T03:04:46;11.60;96.60
3416;DHT22;1721;51.238;9.562;2022-11-18T03:07:28;11.60;96.30
3416;DHT22;1721;51.238;9.562;2022-11-18T03:09:56;11.10;96.90
3416;DHT22;1721;51.238;9.562;2022-11-18T03:12:45;11.00;97.40
3416;DHT22;1721;51.238;9.562;2022-11-18T03:15:44;11.30;97.10
3416;DHT22;1721;51.238;9.562;2022-11-18T03:18:39;11.10;97.40
3416;DHT22;1721;51.238;9.562;2022-11-18T03:21:11;11.30;97.10
3416;DHT22;1721;51.238;9.562;2022-11-18T03:23:50;11.50;96.90
3416;DHT22;1721;51.238;9.562;2022-11-18T03:26:27;11.60;96.70
3416;DHT22;1721;51.238;9.562;2022-11-18T03:29:00;11.60;96.50
3416;DHT22;1721;51.238;9.562;2022-11-18T03:31:39;11.70;96.60
3416;DHT22;1721;51.238;9.562;2022-11-18T03:34:14;11.80;96.60
3416;DHT22;1721;51.238;9.562;2022-11-18T03:36:45;11.80;96.40
3416;DHT22;1721;51.238;9.562;2022-11-18T03:39:12;11.70;96.50
3416;DHT22;1721;51.238;9.562;2022-11-18T03:41:43;11.80;96.50
3416;DHT22;1721;51.238;9.562;2022-11-18T03:44:13;11.80;96.40
3416;DHT22;1721;51.238;9.562;2022-11-18T03:46:46;11.80;96.30
3416;DHT22;1721;51.238;9.562;2022-11-18T03:49:18;11.80;96.40
3416;DHT22;1721;51.238;9.562;2022-11-18T03:51:53;11.80;96.30
3416;DHT22;1721;51.238;9.562;2022-11-18T03:54:32;11.80;96.20
3416;DHT22;1721;51.238;9.562;2022-11-18T03:57:14;11.80;96.00
3416;DHT22;1721;51.238;9.562;2022-11-18T03:59:49;11.70;95.90
3416;DHT22;1721;51.238;9.562;2022-11-18T04:02:19;11.70;95.90
3416;DHT22;1721;51.238;9.562;2022-11-18T04:04:47;11.70;95.80
3416;DHT22;1721;51.238;9.562;2022-11-18T04:09:58;11.60;95.70
3416;DHT22;1721;51.238;9.562;2022-11-18T04:12:29;11.60;95.70
3416;DHT22;1721;51.238;9.562;2022-11-18T04:14:55;11.50;95.60
3416;DHT22;1721;51.238;9.562;2022-11-18T04:17:25;11.40;95.50
3416;DHT22;1721;51.238;9.562;2022-11-18T04:19:51;11.40;95.50
3416;DHT22;1721;51.238;9.562;2022-11-18T04:22:17;11.30;95.40
3416;DHT22;1721;51.238;9.562;2022-11-18T04:24:43;11.30;95.50
3416;DHT22;1721;51.238;9.562;2022-11-18T04:27:09;11.20;95.60
3416;DHT22;1721;51.238;9.562;2022-11-18T04:29:35;11.20;95.60
3416;DHT22;1721;51.238;9.562;2022-11-18T04:32:02;11.20;95.70
3416;DHT22;1721;51.238;9.562;2022-11-18T04:34:28;11.20;95.80
3416;DHT22;1721;51.238;9.562;2022-11-18T04:36:54;11.30;95.80
3416;DHT22;1721;51.238;9.562;2022-11-18T04:39:19;11.30;95.90
3416;DHT22;1721;51.238;9.562;2022-11-18T04:41:45;11.30;96.00
3416;DHT22;1721;51.238;9.562;2022-11-18T04:44:20;11.30;96.00
3416;DHT22;1721;51.238;9.562;2022-11-18T04:46:46;11.30;96.00
3416;DHT22;1721;51.238;9.562;2022-11-18T04:49:13;11.40;96.00
3416;DHT22;1721;51.238;9.562;2022-11-18T04:51:40;11.30;95.90
3416;DHT22;1721;51.238;9.562;2022-11-18T04:54:06;11.30;95.80
3416;DHT22;1721;51.238;9.562;2022-11-18T04:56:32;11.10;95.80
3416;DHT22;1721;51.238;9.562;2022-11-18T04:58:59;11.20;96.00
3416;DHT22;1721;51.238;9.562;2022-11-18T05:01:25;11.20;96.00
3416;DHT22;1721;51.238;9.562;2022-11-18T05:03:51;11.30;96.00
3416;DHT22;1721;51.238;9.562;2022-11-18T05:06:17;11.30;95.90
3416;DHT22;1721;51.238;9.562;2022-11-18T05:08:42;11.30;96.00
3416;DHT22;1721;51.238;9.562;2022-11-18T05:11:08;11.20;95.80
3416;DHT22;1721;51.238;9.562;2022-11-18T05:13:52;11.20;96.30
3416;DHT22;1721;51.238;9.562;2022-11-18T05:16:18;11.30;96.30
3416;DHT22;1721;51.238;9.562;2022-11-18T05:18:43;11.30;96.10
3416;DHT22;1721;51.238;9.562;2022-11-18T05:21:09;11.40;96.20
3416;DHT22;1721;51.238;9.562;2022-11-18T05:23:35;11.30;95.80
3416;DHT22;1721;51.238;9.562;2022-11-18T05:26:08;11.20;96.20
3416;DHT22;1721;51.238;9.562;2022-11-18T05:28:34;11.20;96.40
3416;DHT22;1721;51.238;9.562;2022-11-18T05:31:09;11.30;96.10
3416;DHT22;1721;51.238;9.562;2022-11-18T05:33:35;11.40;96.10
3416;DHT22;1721;51.238;9.562;2022-11-18T05:36:05;11.50;96.10
3416;DHT22;1721;51.238;9.562;2022-11-18T05:38:32;11.60;96.10
3416;DHT22;1721;51.238;9.562;2022-11-18T05:40:58;11.40;96.00
3416;DHT22;1721;51.238;9.562;2022-11-18T05:43:23;11.50;96.20
3416;DHT22;1721;51.238;9.562;2022-11-18T05:45:50;11.60;96.10
3416;DHT22;1721;51.238;9.562;2022-11-18T05:48:17;11.60;96.00
3416;DHT22;1721;51.238;9.562;2022-11-18T05:50:48;11.60;96.10
3416;DHT22;1721;51.238;9.562;2022-11-18T05:53:14;11.70;96.10
3416;DHT22;1721;51.238;9.562;2022-11-18T05:58:16;11.80;96.00
3416;DHT22;1721;51.238;9.562;2022-11-18T06:00:42;11.80;95.90
3416;DHT22;1721;51.238;9.562;2022-11-18T06:03:17;11.70;95.70
3416;DHT22;1721;51.238;9.562;2022-11-18T06:05:44;11.70;95.90
3416;DHT22;1721;51.238;9.562;2022-11-18T06:08:10;11.80;95.90
3416;DHT22;1721;51.238;9.562;2022-11-18T06:10:40;11.70;96.10
3416;DHT22;1721;51.238;9.562;2022-11-18T06:13:09;11.70;96.10
3416;DHT22;1721;51.238;9.562;2022-11-18T06:15:40;11.70;96.20
3416;DHT22;1721;51.238;9.562;2022-11-18T06:18:22;11.80;96.00
3416;DHT22;1721;51.238;9.562;2022-11-18T06:20:51;11.70;96.10
3416;DHT22;1721;51.238;9.562;2022-11-18T06:23:17;11.70;96.10
3416;DHT22;1721;51.238;9.562;2022-11-18T06:25:43;11.80;96.10
3416;DHT22;1721;51.238;9.562;2022-11-18T06:28:11;11.80;96.00
3416;DHT22;1721;51.238;9.562;2022-11-18T06:30:37;11.90;95.90
3416;DHT22;1721;51.238;9.562;2022-11-18T06:33:03;11.90;95.90
3416;DHT22;1721;51.238;9.562;2022-11-18T06:35:28;11.80;95.80
3416;DHT22;1721;51.238;9.562;2022-11-18T06:37:54;11.80;95.80
3416;DHT22;1721;51.238;9.562;2022-11-18T06:40:19;11.80;95.70
3416;DHT22;1721;51.238;9.562;2022-11-18T06:42:45;11.80;95.70
3416;DHT22;1721;51.238;9.562;2022-11-18T06:45:29;11.80;95.70
3416;DHT22;1721;51.238;9.562;2022-11-18T06:47:56;11.80;95.70
3416;DHT22;1721;51.238;9.562;2022-11-18T06:50:22;11.80;95.80
3416;DHT22;1721;51.238;9.562;2022-11-18T06:52:48;11.40;96.30
3416;DHT22;1721;51.238;9.562;2022-11-18T06:55:13;11.40;96.50
3416;DHT22;1721;51.238;9.562;2022-11-18T06:57:39;11.60;96.40
3416;DHT22;1721;51.238;9.562;2022-11-18T07:00:05;11.70;96.20
3416;DHT22;1721;51.238;9.562;2022-11-18T07:02:31;11.80;96.10
3416;DHT22;1721;51.238;9.562;2022-11-18T07:04:57;11.80;96.00
3416;DHT22;1721;51.238;9.562;2022-11-18T07:07:22;11.80;96.00
3416;DHT22;1721;51.238;9.562;2022-11-18T07:09:48;11.80;95.90
3416;DHT22;1721;51.238;9.562;2022-11-18T07:12:14;11.90;95.90
3416;DHT22;1721;51.238;9.562;2022-11-18T07:14:39;11.90;95.80
3416;DHT22;1721;51.238;9.562;2022-11-18T07:17:05;11.90;95.80
3416;DHT22;1721;51.238;9.562;2022-11-18T07:19:30;11.90;95.70
3416;DHT22;1721;51.238;9.562;2022-11-18T07:21:56;11.90;95.60
3416;DHT22;1721;51.238;9.562;2022-11-18T07:24:24;11.90;95.60
3416;DHT22;1721;51.238;9.562;2022-11-18T07:26:51;12.00;95.60
3416;DHT22;1721;51.238;9.562;2022-11-18T07:29:17;12.00;95.70
3416;DHT22;1721;51.238;9.562;2022-11-18T07:31:43;12.00;95.70
3416;DHT22;1721;51.238;9.562;2022-11-18T07:34:08;12.10;95.80
3416;DHT22;1721;51.238;9.562;2022-11-18T07:36:34;12.10;95.80
3416;DHT22;1721;51.238;9.562;2022-11-18T07:39:01;12.20;95.90
3416;DHT22;1721;51.238;9.562;2022-11-18T07:41:29;12.20;95.80
3416;DHT22;1721;51.238;9.562;2022-11-18T07:43:56;12.30;95.90
3416;DHT22;1721;51.238;9.562;2022-11-18T07:46:28;12.30;95.80
3416;DHT22;1721;51.238;9.562;2022-11-18T07:48:55;12.40;95.80
3416;DHT22;1721;51.238;9.562;2022-11-18T07:51:24;12.40;95.70
3416;DHT22;1721;51.238;9.562;2022-11-18T07:53:50;12.50;95.70
3416;DHT22;1721;51.238;9.562;2022-11-18T07:56:16;12.50;95.60
3416;DHT22;1721;51.238;9.562;2022-11-18T07:58:43;12.60;95.60
3416;DHT22;1721;51.238;9.562;2022-11-18T08:01:11;12.60;95.40
3416;DHT22;1721;51.238;9.562;2022-11-18T08:03:37;12.40;95.50
3416;DHT22;1721;51.238;9.562;2022-11-18T08:06:04;12.50;95.50
3416;DHT22;1721;51.238;9.562;2022-11-18T08:08:30;12.50;95.50
3416;DHT22;1721;51.238;9.562;2022-11-18T08:10:57;12.30;95.30
3416;DHT22;1721;51.238;9.562;2022-11-18T08:13:24;12.50;95.30
3416;DHT22;1721;51.238;9.562;2022-11-18T08:15:50;12.30;95.30
3416;DHT22;1721;51.238;9.562;2022-11-18T08:18:15;12.40;95.40
3416;DHT22;1721;51.238;9.562;2022-11-18T08:20:41;12.30;95.50
3416;DHT22;1721;51.238;9.562;2022-11-18T08:23:07;12.10;95.80
3416;DHT22;1721;51.238;9.562;2022-11-18T08:25:32;12.30;95.80
3416;DHT22;1721;51.238;9.562;2022-11-18T08:27:58;12.30;95.80
3416;DHT22;1721;51.238;9.562;2022-11-18T08:30:23;12.30;95.90
3416;DHT22;1721;51.238;9.562;2022-11-18T08:32:49;12.50;95.70
3416;DHT22;1721;51.238;9.562;2022-11-18T08:35:15;12.50;96.10
3416;DHT22;1721;51.238;9.562;2022-11-18T08:37:42;12.60;95.70
3416;DHT22;1721;51.238;9.562;2022-11-18T08:40:08;12.50;95.60
3416;DHT22;1721;51.238;9.562;2022-11-18T08:42:34;12.40;95.80
3416;DHT22;1721;51.238;9.562;2022-11-18T08:44:59;12.40;96.00
3416;DHT22;1721;51.238;9.562;2022-11-18T08:47:25;12.50;95.90
3416;DHT22;1721;51.238;9.562;2022-11-18T08:49:50;12.50;96.00
3416;DHT22;1721;51.238;9.562;2022-11-18T08:52:16;12.40;95.90
3416;DHT22;1721;51.238;9.562;2022-11-18T08:54:41;12.40;95.80
3416;DHT22;1721;51.238;9.562;2022-11-18T08:57:07;12.40;96.00
3416;DHT22;1721;51.238;9.562;2022-11-18T08:59:32;12.50;96.00
3416;DHT22;1721;51.238;9.562;2022-11-18T09:01:58;12.60;95.90
3416;DHT22;1721;51.238;9.562;2022-11-18T09:04:23;12.40;95.90
3416;DHT22;1721;51.238;9.562;2022-11-18T09:06:49;12.60;95.90
3416;DHT22;1721;51.238;9.562;2022-11-18T09:09:15;12.70;95.70
3416;DHT22;1721;51.238;9.562;2022-11-18T09:11:40;12.70;95.60
3416;DHT22;1721;51.238;9.562;2022-11-18T09:14:06;12.60;95.80
3416;DHT22;1721;51.238;9.562;2022-11-18T09:16:35;12.60;95.90
3416;DHT22;1721;51.238;9.562;2022-11-18T09:19:01;12.60;96.10
3416;DHT22;1721;51.238;9.562;2022-11-18T09:21:26;12.80;95.90
3416;DHT22;1721;51.238;9.562;2022-11-18T09:23:53;12.70;95.60
3416;DHT22;1721;51.238;9.562;2022-11-18T09:26:20;12.60;95.70
3416;DHT22;1721;51.238;9.562;2022-11-18T09:28:47;12.70;95.80
3416;DHT22;1721;51.238;9.562;2022-11-18T09:31:15;12.60;95.80
3416;DHT22;1721;51.238;9.562;2022-11-18T09:33:41;12.70;95.90
3416;DHT22;1721;51.238;9.562;2022-11-18T09:36:15;12.70;95.80
3416;DHT22;1721;51.238;9.562;2022-11-18T09:38:42;12.60;96.00
3416;DHT22;1721;51.238;9.562;2022-11-18T09:41:46;12.80;95.70
3416;DHT22;1721;51.238;9.562;2022-11-18T09:49:44;12.90;95.50
3416;DHT22;1721;51.238;9.562;2022-11-18T09:52:26;12.90;95.40
3416;DHT22;1721;51.238;9.562;2022-11-18T09:54:52;12.90;95.30
3416;DHT22;1721;51.238;9.562;2022-11-18T09:57:23;12.90;95.40
3416;DHT22;1721;51.238;9.562;2022-11-18T09:59:49;12.90;95.60
3416;DHT22;1721;51.238;9.562;2022-11-18T10:02:24;13.00;95.20
3416;DHT22;1721;51.238;9.562;2022-11-18T10:04:51;12.90;95.30
3416;DHT22;1721;51.238;9.562;2022-11-18T10:07:23;12.70;95.20
3416;DHT22;1721;51.238;9.562;2022-11-18T10:09:53;12.70;95.50
3416;DHT22;1721;51.238;9.562;2022-11-18T10:12:36;12.60;95.30
3416;DHT22;1721;51.238;9.562;2022-11-18T10:15:21;12.50;95.60
3416;DHT22;1721;51.238;9.562;2022-11-18T10:18:18;12.60;95.60
3416;DHT22;1721;51.238;9.562;2022-11-18T10:23:31;12.60;95.50
3416;DHT22;1721;51.238;9.562;2022-11-18T10:25:58;12.60;95.70
3416;DHT22;1721;51.238;9.562;2022-11-18T10:28:28;12.50;95.60
3416;DHT22;1721;51.238;9.562;2022-11-18T10:31:03;12.30;95.80
3416;DHT22;1721;51.238;9.562;2022-11-18T10:33:29;12.40;96.00
3416;DHT22;1721;51.238;9.562;2022-11-18T10:36:24;12.40;96.00
3416;DHT22;1721;51.238;9.562;2022-11-18T10:39:07;12.60;95.60
3416;DHT22;1721;51.238;9.562;2022-11-18T10:41:48;12.50;95.90
3416;DHT22;1721;51.238;9.562;2022-11-18T10:46:52;12.60;95.80
3416;DHT22;1721;51.238;9.562;2022-11-18T10:49:18;12.60;95.80
3416;DHT22;1721;51.238;9.562;2022-11-18T10:52:07;12.30;96.20
3416;DHT22;1721;51.238;9.562;2022-11-18T10:54:33;12.30;96.30
3416;DHT22;1721;51.238;9.562;2022-11-18T10:57:14;12.40;96.00
3416;DHT22;1721;51.238;9.562;2022-11-18T11:04:49;12.70;95.50
3416;DHT22;1721;51.238;9.562;2022-11-18T11:07:24;12.50;95.60
3416;DHT22;1721;51.238;9.562;2022-11-18T11:12:43;12.40;95.80
3416;DHT22;1721;51.238;9.562;2022-11-18T11:18:11;12.70;96.00
3416;DHT22;1721;51.238;9.562;2022-11-18T11:20:57;12.70;96.00
3416;DHT22;1721;51.238;9.562;2022-11-18T11:23:23;12.90;96.00
3416;DHT22;1721;51.238;9.562;2022-11-18T11:28:51;13.00;95.40
3416;DHT22;1721;51.238;9.562;2022-11-18T11:34:37;13.10;95.40
3416;DHT22;1721;51.238;9.562;2022-11-18T11:37:28;13.10;95.10
3416;DHT22;1721;51.238;9.562;2022-11-18T11:40:02;12.90;95.60
3416;DHT22;1721;51.238;9.562;2022-11-18T11:51:30;13.20;95.20
3416;DHT22;1721;51.238;9.562;2022-11-18T11:56:46;13.00;95.40
3416;DHT22;1721;51.238;9.562;2022-11-18T12:04:55;12.80;95.30
3416;DHT22;1721;51.238;9.562;2022-11-18T12:07:25;12.90;95.10
3416;DHT22;1721;51.238;9.562;2022-11-18T12:10:18;12.70;94.90
3416;DHT22;1721;51.238;9.562;2022-11-18T12:20:52;12.50;95.40
3416;DHT22;1721;51.238;9.562;2022-11-18T12:33:59;12.40;95.30
3416;DHT22;1721;51.238;9.562;2022-11-18T12:36:37;12.20;95.50
3416;DHT22;1721;51.238;9.562;2022-11-18T12:42:00;12.20;95.50
3416;DHT22;1721;51.238;9.562;2022-11-18T12:44:49;12.30;95.30
3416;DHT22;1721;51.238;9.562;2022-11-18T12:50:13;12.00;95.30
3416;DHT22;1721;51.238;9.562;2022-11-18T12:55:23;12.30;94.80
3416;DHT22;1721;51.238;9.562;2022-11-18T12:57:50;12.20;94.60
3416;DHT22;1721;51.238;9.562;2022-11-18T13:02:56;12.30;94.20
3416;DHT22;1721;51.238;9.562;2022-11-18T13:05:27;12.20;94.60
3416;DHT22;1721;51.238;9.562;2022-11-18T13:07:58;12.00;94.40
3416;DHT22;1721;51.238;9.562;2022-11-18T13:13:29;12.00;94.10
3416;DHT22;1721;51.238;9.562;2022-11-18T13:16:01;11.90;94.50
3416;DHT22;1721;51.238;9.562;2022-11-18T13:18:52;12.00;94.40
3416;DHT22;1721;51.238;9.562;2022-11-18T13:21:26;11.90;94.40
3416;DHT22;1721;51.238;9.562;2022-11-18T13:24:13;11.80;94.50
3416;DHT22;1721;51.238;9.562;2022-11-18T13:26:41;11.60;94.60
3416;DHT22;1721;51.238;9.562;2022-11-18T13:34:25;11.30;95.00
3416;DHT22;1721;51.238;9.562;2022-11-18T13:36:52;11.40;95.20
3416;DHT22;1721;51.238;9.562;2022-11-18T13:39:32;11.60;94.80
3416;DHT22;1721;51.238;9.562;2022-11-18T13:42:00;11.70;94.60
3416;DHT22;1721;51.238;9.562;2022-11-18T13:44:31;11.40;94.80
3416;DHT22;1721;51.238;9.562;2022-11-18T13:50:34;11.40;94.80
3416;DHT22;1721;51.238;9.562;2022-11-18T14:01:24;10.30;95.90
3416;DHT22;1721;51.238;9.562;2022-11-18T14:06:36;9.90;97.20
3416;DHT22;1721;51.238;9.562;2022-11-18T14:09:28;9.70;97.00
3416;DHT22;1721;51.238;9.562;2022-11-18T14:12:32;9.80;96.60
3416;DHT22;1721;51.238;9.562;2022-11-18T14:14:50;9.60;96.60
3416;DHT22;1721;51.238;9.562;2022-11-18T14:19:51;9.20;97.40
3416;DHT22;1721;51.238;9.562;2022-11-18T14:22:22;9.20;97.20
3416;DHT22;1721;51.238;9.562;2022-11-18T14:25:00;8.80;97.40
3416;DHT22;1721;51.238;9.562;2022-11-18T14:30:22;8.90;97.90
3416;DHT22;1721;51.238;9.562;2022-11-18T14:35:30;9.00;97.50
3416;DHT22;1721;51.238;9.562;2022-11-18T14:37:56;9.10;97.80
3416;DHT22;1721;51.238;9.562;2022-11-18T14:40:21;9.40;97.20
3416;DHT22;1721;51.238;9.562;2022-11-18T14:42:47;9.30;97.00
3416;DHT22;1721;51.238;9.562;2022-11-18T14:45:12;9.20;97.10
3416;DHT22;1721;51.238;9.562;2022-11-18T14:47:39;9.30;96.70
3416;DHT22;1721;51.238;9.562;2022-11-18T14:50:14;9.60;96.60
3416;DHT22;1721;51.238;9.562;2022-11-18T14:52:40;9.40;96.20
3416;DHT22;1721;51.238;9.562;2022-11-18T14:55:05;9.60;96.10
3416;DHT22;1721;51.238;9.562;2022-11-18T14:57:31;9.80;95.30
3416;DHT22;1721;51.238;9.562;2022-11-18T14:59:57;10.00;94.50
3416;DHT22;1721;51.238;9.562;2022-11-18T15:02:23;9.70;94.80
3416;DHT22;1721;51.238;9.562;2022-11-18T15:04:49;9.70;94.60
3416;DHT22;1721;51.238;9.562;2022-11-18T15:07:16;9.80;94.20
3416;DHT22;1721;51.238;9.562;2022-11-18T15:09:42;9.50;94.20
3416;DHT22;1721;51.238;9.562;2022-11-18T15:12:08;9.60;94.30
3416;DHT22;1721;51.238;9.562;2022-11-18T15:14:34;9.30;93.90
3416;DHT22;1721;51.238;9.562;2022-11-18T15:17:01;8.50;95.50
3416;DHT22;1721;51.238;9.562;2022-11-18T15:19:26;8.10;95.90
3416;DHT22;1721;51.238;9.562;2022-11-18T15:21:52;8.30;96.40
3416;DHT22;1721;51.238;9.562;2022-11-18T15:24:17;8.20;96.40
3416;DHT22;1721;51.238;9.562;2022-11-18T15:26:45;8.20;96.40
3416;DHT22;1721;51.238;9.562;2022-11-18T15:29:18;7.90;96.40
3416;DHT22;1721;51.238;9.562;2022-11-18T15:31:45;7.70;97.00
3416;DHT22;1721;51.238;9.562;2022-11-18T15:34:11;7.60;97.20
3416;DHT22;1721;51.238;9.562;2022-11-18T15:36:37;7.70;96.20
3416;DHT22;1721;51.238;9.562;2022-11-18T15:39:03;7.90;96.90
3416;DHT22;1721;51.238;9.562;2022-11-18T15:41:29;8.20;95.90
3416;DHT22;1721;51.238;9.562;2022-11-18T15:43:57;8.00;96.00
3416;DHT22;1721;51.238;9.562;2022-11-18T15:46:25;8.00;95.70
3416;DHT22;1721;51.238;9.562;2022-11-18T15:48:55;7.80;95.90
3416;DHT22;1721;51.238;9.562;2022-11-18T15:51:21;7.70;96.00
3416;DHT22;1721;51.238;9.562;2022-11-18T15:53:47;7.70;95.50
3416;DHT22;1721;51.238;9.562;2022-11-18T15:59:05;7.60;96.60
3416;DHT22;1721;51.238;9.562;2022-11-18T16:01:34;7.50;95.70
3416;DHT22;1721;51.238;9.562;2022-11-18T16:04:00;7.20;96.30
3416;DHT22;1721;51.238;9.562;2022-11-18T16:06:26;6.90;96.30
3416;DHT22;1721;51.238;9.562;2022-11-18T16:08:52;6.60;96.30
3416;DHT22;1721;51.238;9.562;2022-11-18T16:11:18;6.50;97.00
3416;DHT22;1721;51.238;9.562;2022-11-18T16:14:10;6.60;97.00
3416;DHT22;1721;51.238;9.562;2022-11-18T16:16:38;6.80;97.00
3416;DHT22;1721;51.238;9.562;2022-11-18T16:19:06;6.60;96.50
3416;DHT22;1721;51.238;9.562;2022-11-18T16:21:35;6.70;96.30
3416;DHT22;1721;51.238;9.562;2022-11-18T16:24:02;6.50;96.50
3416;DHT22;1721;51.238;9.562;2022-11-18T16:26:28;6.70;96.50
3416;DHT22;1721;51.238;9.562;2022-11-18T16:28:57;6.60;96.40
3416;DHT22;1721;51.238;9.562;2022-11-18T16:31:23;6.70;96.30
3416;DHT22;1721;51.238;9.562;2022-11-18T16:36:42;6.40;95.70
3416;DHT22;1721;51.238;9.562;2022-11-18T16:39:18;6.20;96.20
3416;DHT22;1721;51.238;9.562;2022-11-18T16:41:45;6.20;96.40
3416;DHT22;1721;51.238;9.562;2022-11-18T16:44:14;6.10;96.30
3416;DHT22;1721;51.238;9.562;2022-11-18T16:46:44;6.10;96.60
3416;DHT22;1721;51.238;9.562;2022-11-18T16:49:12;6.40;96.20
3416;DHT22;1721;51.238;9.562;2022-11-18T16:51:43;6.20;95.30
3416;DHT22;1721;51.238;9.562;2022-11-18T16:54:29;5.80;95.50
3416;DHT22;1721;51.238;9.562;2022-11-18T16:56:56;5.60;96.20
3416;DHT22;1721;51.238;9.562;2022-11-18T16:59:24;5.40;96.50
3416;DHT22;1721;51.238;9.562;2022-11-18T17:01:51;5.60;96.90
3416;DHT22;1721;51.238;9.562;2022-11-18T17:04:18;5.50;96.50
3416;DHT22;1721;51.238;9.562;2022-11-18T17:06:44;5.30;96.30
3416;DHT22;1721;51.238;9.562;2022-11-18T17:09:15;5.60;96.60
3416;DHT22;1721;51.238;9.562;2022-11-18T17:11:41;5.80;96.30
3416;DHT22;1721;51.238;9.562;2022-11-18T17:14:07;5.60;96.20
3416;DHT22;1721;51.238;9.562;2022-11-18T17:16:32;5.50;95.70
3416;DHT22;1721;51.238;9.562;2022-11-18T17:18:59;5.60;96.20
3416;DHT22;1721;51.238;9.562;2022-11-18T17:21:26;6.00;96.10
3416;DHT22;1721;51.238;9.562;2022-11-18T17:23:52;6.10;94.80
3416;DHT22;1721;51.238;9.562;2022-11-18T17:26:23;5.90;95.00
3416;DHT22;1721;51.238;9.562;2022-11-18T17:28:50;5.60;94.90
3416;DHT22;1721;51.238;9.562;2022-11-18T17:31:18;5.60;95.80
3416;DHT22;1721;51.238;9.562;2022-11-18T17:33:44;5.70;95.80
3416;DHT22;1721;51.238;9.562;2022-11-18T17:36:12;5.80;95.00
3416;DHT22;1721;51.238;9.562;2022-11-18T17:38:41;5.80;95.30
3416;DHT22;1721;51.238;9.562;2022-11-18T17:41:08;5.80;95.00
3416;DHT22;1721;51.238;9.562;2022-11-18T17:43:34;6.00;94.80
3416;DHT22;1721;51.238;9.562;2022-11-18T17:46:00;6.10;94.10
3416;DHT22;1721;51.238;9.562;2022-11-18T17:48:27;6.30;93.80
3416;DHT22;1721;51.238;9.562;2022-11-18T17:51:01;6.00;94.50
3416;DHT22;1721;51.238;9.562;2022-11-18T17:53:27;5.80;93.60
3416;DHT22;1721;51.238;9.562;2022-11-18T17:55:52;5.70;94.10
3416;DHT22;1721;51.238;9.562;2022-11-18T17:58:18;5.50;93.90
3416;DHT22;1721;51.238;9.562;2022-11-18T18:00:43;5.30;94.30
3416;DHT22;1721;51.238;9.562;2022-11-18T18:03:09;5.50;94.50
3416;DHT22;1721;51.238;9.562;2022-11-18T18:05:34;5.20;94.60
3416;DHT22;1721;51.238;9.562;2022-11-18T18:08:00;5.60;94.70
3416;DHT22;1721;51.238;9.562;2022-11-18T18:10:25;5.70;94.00
3416;DHT22;1721;51.238;9.562;2022-11-18T18:12:51;5.50;93.50
3416;DHT22;1721;51.238;9.562;2022-11-18T18:15:37;5.50;93.90
3416;DHT22;1721;51.238;9.562;2022-11-18T18:18:03;5.30;93.70
3416;DHT22;1721;51.238;9.562;2022-11-18T18:20:28;5.30;94.50
3416;DHT22;1721;51.238;9.562;2022-11-18T18:22:54;5.30;94.40
3416;DHT22;1721;51.238;9.562;2022-11-18T18:25:20;5.10;94.10
3416;DHT22;1721;51.238;9.562;2022-11-18T18:27:46;5.00;94.10
3416;DHT22;1721;51.238;9.562;2022-11-18T18:30:13;5.00;94.80